createdAt,value
2022-11-30T10:01:19.501Z,99.00
2022-11-30T10:02:15.814Z,110.10
2022-11-30T10:03:08.049Z,115.80
2022-11-30T10:03:59.660Z,118.80
2022-11-30T10:04:51.016Z,117.40
2022-11-30T10:05:45.265Z,124.60
2022-11-30T10:06:54.948Z,119.70
2022-11-30T10:07:49.256Z,119.70
2022-11-30T10:08:59.433Z,114.40
2022-11-30T10:10:32.110Z,120.90
2022-11-30T10:11:59.523Z,115.90
2022-11-30T10:12:56.993Z,122.90
2022-11-30T10:14:03.917Z,131.30
2022-11-30T10:15:04.272Z,127.20
2022-11-30T10:16:03.902Z,132.40
2022-11-30T10:17:14.155Z,129.40
2022-11-30T10:18:15.250Z,135.10
2022-11-30T10:19:24.944Z,142.50
2022-11-30T10:20:25.449Z,137.90
2022-11-30T10:21:28.804Z,143.40
2022-11-30T10:22:32.258Z,152.90
2022-11-30T10:23:35.566Z,147.70
2022-11-30T10:24:52.763Z,162.60
2022-11-30T10:25:57.421Z,155.50
2022-11-30T10:27:42.707Z,165.60
2022-11-30T10:28:47.971Z,178.00
2022-11-30T10:29:41.876Z,178.30
2022-11-30T10:30:36.238Z,175.10
2022-11-30T10:31:35.517Z,172.10
2022-11-30T10:32:32.528Z,170.60
2022-11-30T10:33:27.349Z,178.60
2022-11-30T10:34:21.374Z,187.00
2022-11-30T10:35:33.307Z,188.00
2022-11-30T10:36:33.599Z,191.00
2022-11-30T10:37:31.754Z,182.60
2022-11-30T10:38:30.517Z,193.20
2022-11-30T10:39:24.638Z,190.80
2022-11-30T10:40:45.351Z,203.00
2022-11-30T10:42:02.934Z,207.80
2022-11-30T10:43:15.567Z,208.80
2022-11-30T10:44:12.655Z,210.80
2022-11-30T10:45:06.242Z,221.70
2022-11-30T10:45:57.395Z,219.90
2022-11-30T10:46:53.213Z,227.30
2022-11-30T10:47:48.353Z,226.00
2022-11-30T10:48:43.289Z,219.70
2022-11-30T10:49:35.662Z,234.00
2022-11-30T10:50:28.070Z,233.90
2022-11-30T10:51:20.237Z,245.30
2022-11-30T10:52:12.882Z,241.20
2022-11-30T10:53:04.028Z,246.60
2022-11-30T10:53:55.423Z,245.30
2022-11-30T10:54:47.440Z,253.60
2022-11-30T10:55:40.735Z,245.00
2022-11-30T10:56:31.973Z,252.20
2022-11-30T10:57:27.642Z,246.10
2022-11-30T10:58:22.109Z,250.80
2022-11-30T10:59:22.586Z,254.20
2022-11-30T11:00:15.307Z,262.60
2022-11-30T11:01:08.489Z,257.50
2022-11-30T11:01:59.693Z,258.40
2022-11-30T11:02:51.734Z,261.60
2022-11-30T11:03:43.235Z,265.20
2022-11-30T11:04:34.631Z,273.20
2022-11-30T11:05:27.114Z,274.20
2022-11-30T11:06:23.415Z,275.20
2022-11-30T11:07:14.615Z,277.50
2022-11-30T11:08:24.603Z,279.30
2022-11-30T11:09:25.046Z,287.40
2022-11-30T11:10:17.918Z,277.40
2022-11-30T11:11:28.148Z,277.50
2022-11-30T11:12:25.528Z,295.50
2022-11-30T11:13:17.987Z,291.80
2022-11-30T11:14:09.376Z,299.70
2022-11-30T11:15:17.152Z,297.40
2022-11-30T11:16:09.552Z,291.50
2022-11-30T11:17:02.828Z,298.50
2022-11-30T11:18:06.365Z,304.20
2022-11-30T11:18:57.946Z,297.30
2022-11-30T11:19:50.436Z,303.90
2022-11-30T11:20:44.867Z,306.30
2022-11-30T11:21:36.617Z,302.70
2022-11-30T11:23:21.483Z,307.50
2022-11-30T11:24:17.794Z,316.40
2022-11-30T11:25:20.824Z,308.70
2022-11-30T11:26:20.338Z,320.80
2022-11-30T11:27:20.553Z,329.70
2022-11-30T11:28:17.207Z,331.40
2022-11-30T11:29:31.342Z,329.30
2022-11-30T11:30:25.466Z,332.10
2022-11-30T11:31:19.729Z,343.60
2022-11-30T11:32:19.187Z,345.40
2022-11-30T11:33:13.636Z,354.50
2022-11-30T11:34:17.824Z,341.60
2022-11-30T11:35:27.903Z,331.00
2022-11-30T11:36:25.250Z,353.40
2022-11-30T11:37:20.177Z,353.30
2022-11-30T11:38:18.344Z,354.10
2022-11-30T11:40:00.674Z,352.40
2022-11-30T11:40:53.756Z,360.60
2022-11-30T11:41:45.287Z,346.70
2022-11-30T11:42:41.768Z,342.40
2022-11-30T11:43:34.784Z,353.30
2022-11-30T11:44:27.297Z,344.50
2022-11-30T11:45:22.523Z,345.70
2022-11-30T11:46:14.399Z,335.80
2022-11-30T11:47:07.546Z,348.20
2022-11-30T11:48:03.927Z,342.90
2022-11-30T11:49:02.584Z,346.00
2022-11-30T11:50:08.790Z,335.90
2022-11-30T11:51:07.512Z,321.40
2022-11-30T11:52:00.969Z,335.80
2022-11-30T11:53:06.922Z,322.50
2022-11-30T11:54:19.866Z,322.70
2022-11-30T11:55:18.296Z,311.80
2022-11-30T11:56:12.057Z,317.20
2022-11-30T11:57:03.767Z,308.70
2022-11-30T11:58:00.582Z,286.10
2022-11-30T11:58:59.791Z,286.00
2022-11-30T12:00:12.511Z,286.10
2022-11-30T12:01:38.593Z,286.00
2022-11-30T12:02:32.904Z,267.80
2022-11-30T12:03:30.552Z,273.40
2022-11-30T12:04:41.589Z,262.80
2022-11-30T12:05:35.878Z,264.80
2022-11-30T12:06:27.829Z,277.30
2022-11-30T12:07:37.375Z,273.00
2022-11-30T12:08:33.416Z,251.90
2022-11-30T12:09:28.687Z,251.00
2022-11-30T12:11:44.921Z,242.70
2022-11-30T12:12:39.943Z,237.90
2022-11-30T12:13:42.001Z,238.80
2022-11-30T12:14:35.236Z,227.90
2022-11-30T12:15:31.161Z,236.60
2022-11-30T12:16:32.988Z,236.10
2022-11-30T12:17:30.626Z,216.70
2022-11-30T12:18:24.895Z,213.90
2022-11-30T12:19:19.569Z,214.60
2022-11-30T12:20:20.096Z,215.10
2022-11-30T12:21:14.649Z,201.10
2022-11-30T12:22:09.001Z,201.20
2022-11-30T12:23:06.144Z,201.80
2022-11-30T12:24:15.798Z,195.30
2022-11-30T12:25:15.351Z,195.40
2022-11-30T12:26:12.907Z,189.50
2022-11-30T12:27:21.689Z,186.90
2022-11-30T12:28:23.472Z,182.60
2022-11-30T12:29:23.238Z,178.60
2022-11-30T12:30:26.511Z,174.30
2022-11-30T12:31:18.565Z,176.00
2022-11-30T12:32:12.987Z,171.40
2022-11-30T12:33:04.438Z,176.00
2022-11-30T12:34:18.904Z,172.00
2022-11-30T12:35:14.871Z,171.30
2022-11-30T12:36:12.137Z,158.80
2022-11-30T12:37:06.095Z,158.70
2022-11-30T12:38:05.917Z,165.50
2022-11-30T12:39:01.379Z,159.70
2022-11-30T12:40:11.805Z,158.40
2022-11-30T12:41:06.033Z,153.40
2022-11-30T12:42:21.189Z,155.60
2022-11-30T12:43:12.474Z,143.40
2022-11-30T12:44:04.205Z,148.10
2022-11-30T12:45:05.011Z,140.30
2022-11-30T12:46:15.155Z,142.10
2022-11-30T12:47:20.352Z,136.40
2022-11-30T12:48:15.000Z,130.70
2022-11-30T12:49:21.897Z,131.20
2022-11-30T12:50:32.198Z,127.80
2022-11-30T12:51:47.829Z,133.20
2022-11-30T12:52:48.381Z,124.90
2022-11-30T12:53:45.539Z,121.80
2022-11-30T12:54:39.743Z,127.50
2022-11-30T12:56:00.789Z,121.20
2022-11-30T12:56:51.879Z,121.40
2022-11-30T12:58:01.505Z,126.10
2022-11-30T12:59:14.706Z,121.20
2022-11-30T13:00:32.399Z,111.00
2022-11-30T13:01:29.591Z,112.20
2022-11-30T13:02:33.597Z,107.50
2022-11-30T13:03:27.710Z,107.00
2022-11-30T13:04:21.378Z,104.40
2022-11-30T13:05:15.617Z,94.80
2022-11-30T13:06:09.676Z,97.90
2022-11-30T13:07:04.677Z,91.10
2022-11-30T13:08:04.509Z,102.80
2022-11-30T13:09:02.517Z,98.20
2022-11-30T13:09:56.590Z,97.10
2022-11-30T13:10:49.478Z,101.60
2022-11-30T13:11:43.433Z,93.70
2022-11-30T13:12:36.312Z,89.50
2022-11-30T13:13:32.139Z,88.30
2022-11-30T13:14:24.575Z,83.30
2022-11-30T13:15:20.075Z,95.20
2022-11-30T13:16:11.628Z,88.40
2022-11-30T13:17:04.973Z,76.60
2022-11-30T13:17:56.887Z,85.50
2022-11-30T13:18:49.143Z,82.30
2022-11-30T13:19:59.846Z,83.50
2022-11-30T13:20:56.381Z,77.20
2022-11-30T13:21:52.325Z,88.10
2022-11-30T13:22:55.439Z,80.30
2022-11-30T13:24:02.426Z,78.10
2022-11-30T13:24:58.991Z,79.50
2022-11-30T13:26:09.705Z,75.90
2022-11-30T13:27:06.136Z,74.10
2022-11-30T13:28:12.927Z,71.20
2022-11-30T13:29:08.893Z,73.40
2022-11-30T13:30:04.103Z,72.70
2022-11-30T13:31:07.367Z,70.20
2022-11-30T13:32:05.330Z,71.70
2022-11-30T13:33:59.192Z,71.30
2022-11-30T13:34:50.858Z,69.50
2022-11-30T13:35:50.442Z,68.60
2022-11-30T13:36:44.642Z,75.10
2022-11-30T13:37:37.498Z,66.80
2022-11-30T13:38:36.873Z,68.70
2022-11-30T13:39:42.765Z,67.90
2022-11-30T13:40:34.342Z,66.50
2022-11-30T13:41:25.546Z,72.80
2022-11-30T13:42:31.509Z,67.60
2022-11-30T13:43:23.819Z,72.00
2022-11-30T13:44:41.094Z,66.40
2022-11-30T13:45:34.063Z,64.60
2022-11-30T13:46:25.550Z,64.20
2022-11-30T13:47:35.085Z,69.90
2022-11-30T13:48:31.749Z,64.60
2022-11-30T13:49:25.168Z,71.90
2022-11-30T13:50:22.399Z,68.20
2022-11-30T13:51:33.439Z,72.40
2022-11-30T13:52:43.706Z,69.40
2022-11-30T13:53:38.600Z,68.10
2022-11-30T13:54:39.846Z,67.10
2022-11-30T13:55:43.561Z,66.10
2022-11-30T13:56:48.755Z,66.80
2022-11-30T13:57:42.601Z,71.40
2022-11-30T13:58:34.197Z,71.30
2022-11-30T13:59:25.675Z,66.50
2022-11-30T14:00:29.901Z,67.70
2022-11-30T14:01:25.981Z,66.60
2022-11-30T14:02:34.255Z,66.80
2022-11-30T14:03:26.867Z,67.40
2022-11-30T14:04:17.916Z,68.20
2022-11-30T14:05:18.016Z,68.20
2022-11-30T14:06:44.911Z,68.00
2022-11-30T14:07:37.897Z,65.00
2022-11-30T14:08:36.895Z,64.30
2022-11-30T14:09:40.371Z,68.60
2022-11-30T14:10:35.252Z,67.10
2022-11-30T14:11:37.475Z,67.30
2022-11-30T14:12:32.588Z,63.60
2022-11-30T14:13:27.833Z,72.10
2022-11-30T14:14:43.489Z,63.70
2022-11-30T14:15:39.623Z,63.60
2022-11-30T14:16:31.354Z,66.80
2022-11-30T14:17:30.138Z,65.00
2022-11-30T14:18:23.369Z,69.80
2022-11-30T14:19:14.697Z,66.00
2022-11-30T14:20:15.965Z,63.70
2022-11-30T14:21:24.436Z,64.50
2022-11-30T14:22:16.257Z,64.10
2022-11-30T14:23:10.797Z,68.80
2022-11-30T14:24:05.312Z,65.30
2022-11-30T14:24:56.585Z,68.70
2022-11-30T14:25:49.693Z,66.90
2022-11-30T14:26:44.504Z,65.90
2022-11-30T14:27:35.926Z,65.60
2022-11-30T14:28:32.126Z,61.30
2022-11-30T14:29:25.699Z,66.00
2022-11-30T14:30:18.624Z,64.00
2022-11-30T14:31:11.353Z,62.60
2022-11-30T14:32:15.639Z,63.20
2022-11-30T14:33:15.293Z,62.40
2022-11-30T14:34:22.770Z,61.90
2022-11-30T14:35:16.424Z,69.30
2022-11-30T14:36:09.403Z,63.20
2022-11-30T14:37:03.103Z,68.60
2022-11-30T14:37:59.104Z,65.10
2022-11-30T14:38:50.842Z,65.20
2022-11-30T14:39:43.771Z,62.50
2022-11-30T14:40:35.182Z,61.10
2022-11-30T14:41:28.275Z,64.60
2022-11-30T14:42:23.487Z,64.40
2022-11-30T14:43:16.459Z,65.60
2022-11-30T14:44:14.288Z,63.30
2022-11-30T14:45:14.078Z,59.60
2022-11-30T14:46:09.195Z,63.00
2022-11-30T14:47:14.795Z,61.00
2022-11-30T14:48:07.904Z,60.40
2022-11-30T14:49:18.635Z,64.30
2022-11-30T14:50:21.019Z,62.40
2022-11-30T14:51:13.055Z,60.90
2022-11-30T14:53:01.713Z,60.00
2022-11-30T14:53:57.219Z,62.50
2022-11-30T14:55:09.145Z,60.50
2022-11-30T14:56:03.285Z,60.80
2022-11-30T14:56:59.118Z,59.10
2022-11-30T14:58:02.715Z,62.60
2022-11-30T14:59:05.632Z,60.80
2022-11-30T14:59:57.343Z,57.90
2022-11-30T15:00:49.649Z,56.00
2022-11-30T15:01:41.087Z,59.30
2022-11-30T15:02:35.517Z,56.20
2022-11-30T15:03:28.929Z,60.50
2022-11-30T15:04:20.604Z,57.10
2022-11-30T15:05:16.638Z,62.70
2022-11-30T15:06:08.225Z,59.40
2022-11-30T15:07:00.311Z,54.00
2022-11-30T15:07:51.807Z,60.80
2022-11-30T15:08:46.637Z,55.60
2022-11-30T15:09:40.685Z,57.90
2022-11-30T15:10:33.013Z,56.50
2022-11-30T15:11:24.929Z,58.30
2022-11-30T15:12:18.434Z,57.50
2022-11-30T15:13:12.673Z,58.00
2022-11-30T15:14:08.959Z,57.90
2022-11-30T15:15:18.362Z,57.00
2022-11-30T15:16:17.212Z,55.50
2022-11-30T15:17:14.191Z,55.60
2022-11-30T15:18:16.170Z,58.00
2022-11-30T15:19:27.507Z,55.00
2022-11-30T15:20:22.499Z,56.40
2022-11-30T15:21:19.520Z,56.00
2022-11-30T15:22:23.384Z,55.90
2022-11-30T15:23:17.933Z,55.10
2022-11-30T15:24:09.328Z,55.70
2022-11-30T15:25:00.602Z,57.90
2022-11-30T15:25:58.141Z,54.30
2022-11-30T15:26:52.719Z,56.20
2022-11-30T15:27:44.194Z,54.50
2022-11-30T15:28:38.690Z,52.20
2022-11-30T15:29:31.856Z,55.50
2022-11-30T15:30:23.084Z,49.70
2022-11-30T15:31:15.977Z,46.80
2022-11-30T15:32:14.502Z,47.50
2022-11-30T15:33:05.911Z,46.40
2022-11-30T15:33:57.259Z,44.80
2022-11-30T15:36:12.458Z,44.90
2022-11-30T15:36:59.553Z,50.10
2022-11-30T15:37:51.008Z,47.70
2022-11-30T15:38:47.510Z,50.20
2022-11-30T15:39:41.151Z,51.60
2022-11-30T15:40:33.226Z,51.60
2022-11-30T15:41:25.666Z,48.60
2022-11-30T15:42:19.331Z,46.00
2022-11-30T15:43:19.635Z,47.70
2022-11-30T15:44:22.891Z,48.20
2022-11-30T15:45:20.969Z,49.70
2022-11-30T15:47:07.932Z,47.30
2022-11-30T15:47:59.945Z,53.20
2022-11-30T15:49:03.631Z,47.80
2022-11-30T15:49:55.461Z,46.00
2022-11-30T15:50:47.096Z,48.50
2022-11-30T15:51:39.537Z,47.30
2022-11-30T16:31:34.991Z,31.50
2022-11-30T16:32:26.443Z,33.20
2022-11-30T16:33:20.535Z,31.80
2022-11-30T16:34:11.730Z,30.20
2022-11-30T16:35:02.920Z,30.60
2022-11-30T16:36:01.408Z,30.90
2022-11-30T16:36:52.982Z,33.30
2022-11-30T16:37:47.282Z,29.60
2022-11-30T16:38:38.800Z,29.00
2022-11-30T16:39:30.738Z,30.60
2022-11-30T16:40:22.198Z,29.80
2022-11-30T16:41:18.994Z,27.80
2022-11-30T16:42:13.110Z,29.70
2022-11-30T16:43:05.881Z,26.90
2022-11-30T16:44:00.609Z,32.00
2022-11-30T16:44:54.270Z,27.90
2022-11-30T16:45:46.748Z,29.70
2022-11-30T16:46:38.301Z,27.60
2022-11-30T16:47:29.627Z,28.20
2022-11-30T16:48:21.215Z,26.10
2022-11-30T16:50:04.840Z,23.20
2022-11-30T16:50:56.945Z,27.10
2022-11-30T16:51:48.729Z,25.10
2022-11-30T16:52:41.635Z,26.60
2022-11-30T16:53:33.006Z,26.50
2022-11-30T16:54:24.590Z,27.60
2022-11-30T16:55:21.099Z,25.50
2022-11-30T16:56:14.312Z,25.40
2022-11-30T16:57:05.382Z,25.50
2022-11-30T16:57:58.234Z,26.40
2022-11-30T16:58:50.260Z,27.20
2022-11-30T16:59:41.808Z,24.00
2022-11-30T17:00:33.780Z,25.20
2022-11-30T17:01:36.028Z,25.30
2022-11-30T17:02:28.160Z,24.60
2022-11-30T17:04:18.083Z,24.80
2022-11-30T17:05:13.956Z,25.60
2022-11-30T17:06:08.817Z,22.50
2022-11-30T17:07:02.814Z,24.30
2022-11-30T17:07:54.686Z,21.60
2022-11-30T17:08:47.134Z,23.80
2022-11-30T17:09:38.546Z,25.80
2022-11-30T17:10:30.328Z,25.00
2022-11-30T17:11:30.929Z,25.10
2022-11-30T17:12:22.312Z,23.10
2022-11-30T17:14:06.946Z,23.00
2022-11-30T17:15:01.549Z,25.30
2022-11-30T17:15:52.772Z,21.40
2022-11-30T17:16:44.185Z,23.00
2022-11-30T17:17:35.495Z,24.50
2022-11-30T17:18:29.637Z,24.40
2022-11-30T17:19:23.839Z,26.20
2022-11-30T17:20:17.131Z,23.70
2022-11-30T17:21:14.267Z,22.70
2022-11-30T17:22:06.269Z,22.60
2022-11-30T17:22:58.043Z,22.70
2022-11-30T17:23:49.616Z,21.80
2022-11-30T17:24:41.000Z,23.70
2022-11-30T17:25:32.533Z,21.90
2022-11-30T17:26:24.117Z,25.70
2022-11-30T17:27:15.693Z,23.80
2022-11-30T17:28:07.109Z,24.20
2022-11-30T17:28:58.710Z,24.20
2022-11-30T17:29:49.902Z,25.00
2022-11-30T17:30:41.219Z,23.00
2022-11-30T17:31:32.885Z,22.70
2022-11-30T17:32:24.378Z,23.70
2022-11-30T17:33:15.599Z,24.40
2022-11-30T17:34:08.576Z,24.20
2022-11-30T17:34:59.987Z,25.20
2022-11-30T17:35:51.536Z,19.80
2022-11-30T17:37:35.249Z,24.70
2022-11-30T17:38:27.641Z,24.60
2022-11-30T17:39:19.380Z,24.50
2022-11-30T17:40:15.891Z,24.10
2022-11-30T17:41:09.295Z,24.40
2022-11-30T17:42:02.475Z,25.50
2022-11-30T17:42:55.834Z,24.60
2022-11-30T17:43:48.716Z,26.50
2022-11-30T17:44:40.294Z,26.10
2022-11-30T17:45:31.819Z,27.30
2022-11-30T17:47:14.413Z,28.70
2022-11-30T17:48:05.749Z,27.60
2022-11-30T17:48:57.309Z,28.90
2022-11-30T17:49:49.254Z,25.80
